KSWO/SWO METAR and TAF weather

Enter ICAO airport designator
Station Type Date Time Source
KSWO METAR 2019/02/22 23:53 UTC NOAA

KSWO 222353Z 10005KT 4SM -RA BR OVC006 08/06 A2994 RMK AO2 RAB03 SLP138 P0004 60004 T00780056 10089 20061 56009


Station Type Date Time Source
KSWO Decoded METAR 2019/02/22 23:53 UTC NOAA

STILLWATER REGIONAL AIRPORT, OK, United States (KSWO) 36-10N 97-05W 290M
Feb 22, 2019 - 06:53 PM EST / 2019.02.22 2353 UTC
Wind: from the E (100 degrees) at 6 MPH (5 KT):0
Visibility: 4 mile(s):0
Sky conditions: overcast
Weather: light rain; mist
Precipitation last hour: 0.04 inches
Temperature: 46.0 F (7.8 C)
Dew Point: 42.1 F (5.6 C)
Relative Humidity: 85%
Pressure (altimeter): 29.94 in. Hg (1013 hPa)
Pressure tendency: 0.03 inches (0.9 hPa) lower than three hours ago
ob: KSWO 222353Z 10005KT 4SM -RA BR OVC006 08/06 A2994 RMK AO2 RAB03 SLP138 P0004 60004 T00780056 10089 20061 56009
cycle: 0

Station Type Date Time Source
KSWO TAF UTC NOAA

Error!


Example: see airport list